createdAt,value
2022-11-17T00:00:43.326Z,11.00
2022-11-17T00:03:20.197Z,11.80
2022-11-17T00:05:47.662Z,9.40
2022-11-17T00:08:15.155Z,15.90
2022-11-17T00:10:42.258Z,11.50
2022-11-17T00:13:30.480Z,13.00
2022-11-17T00:15:59.648Z,12.10
2022-11-17T00:18:45.797Z,13.40
2022-11-17T00:21:21.878Z,11.70
2022-11-17T00:23:50.942Z,12.70
2022-11-17T00:26:20.657Z,12.00
2022-11-17T00:28:51.794Z,14.50
2022-11-17T00:31:37.478Z,13.50
2022-11-17T00:34:07.721Z,14.00
2022-11-17T00:36:46.139Z,11.60
2022-11-17T00:39:17.677Z,11.00
2022-11-17T00:41:45.339Z,11.30
2022-11-17T00:44:14.894Z,14.50
2022-11-17T00:46:42.606Z,12.20
2022-11-17T00:49:13.713Z,12.50
2022-11-17T00:51:41.299Z,13.80
2022-11-17T00:54:11.639Z,16.30
2022-11-17T00:56:40.891Z,13.50
2022-11-17T00:59:08.082Z,12.50
2022-11-17T01:01:35.679Z,11.80
2022-11-17T01:04:03.785Z,14.10
2022-11-17T01:06:39.879Z,15.30
2022-11-17T01:09:15.406Z,12.30
2022-11-17T01:11:43.598Z,12.10
2022-11-17T01:14:14.952Z,13.20
2022-11-17T01:16:42.799Z,12.50
2022-11-17T01:19:13.118Z,12.30
2022-11-17T01:21:40.600Z,10.80
2022-11-17T01:24:08.156Z,11.20
2022-11-17T01:26:37.331Z,11.90
2022-11-17T01:29:06.035Z,12.90
2022-11-17T01:31:39.322Z,10.40
2022-11-17T01:34:07.693Z,11.40
2022-11-17T01:36:56.253Z,13.30
2022-11-17T01:39:25.298Z,10.80
2022-11-17T01:41:53.317Z,11.40
2022-11-17T01:44:42.360Z,11.80
2022-11-17T01:47:35.338Z,10.30
2022-11-17T01:50:17.936Z,10.30
2022-11-17T01:52:45.300Z,9.50
2022-11-17T01:55:13.069Z,11.20
2022-11-17T01:57:45.755Z,9.50
2022-11-17T02:00:13.753Z,10.30
2022-11-17T02:02:41.786Z,11.10
2022-11-17T02:05:21.846Z,10.40
2022-11-17T02:07:51.963Z,11.10
2022-11-17T02:10:19.625Z,9.50
2022-11-17T02:12:48.730Z,8.90
2022-11-17T02:15:15.965Z,9.20
2022-11-17T02:17:44.437Z,9.40
2022-11-17T02:20:56.528Z,8.80
2022-11-17T02:23:51.749Z,8.60
2022-11-17T02:26:43.420Z,10.20
2022-11-17T02:29:22.104Z,7.90
2022-11-17T02:32:01.343Z,8.90
2022-11-17T02:34:29.868Z,9.70
2022-11-17T02:37:06.383Z,9.00
2022-11-17T02:39:41.822Z,9.10
2022-11-17T02:42:57.004Z,7.70
2022-11-17T02:45:56.599Z,7.20
2022-11-17T02:48:29.387Z,9.70
2022-11-17T02:50:58.184Z,7.90
2022-11-17T02:53:26.342Z,8.60
2022-11-17T02:55:56.677Z,8.10
2022-11-17T02:58:23.914Z,7.90
2022-11-17T03:01:24.772Z,9.30
2022-11-17T03:03:57.742Z,8.00
2022-11-17T03:06:56.883Z,7.80
2022-11-17T03:10:05.059Z,8.80
2022-11-17T03:12:43.670Z,8.70
2022-11-17T03:15:32.929Z,8.50
2022-11-17T03:18:06.213Z,10.00
2022-11-17T03:20:45.776Z,11.70
2022-11-17T03:23:22.153Z,10.80
2022-11-17T03:25:55.027Z,12.70
2022-11-17T03:28:30.455Z,11.30
2022-11-17T03:30:59.364Z,12.80
2022-11-17T03:33:28.237Z,11.80
2022-11-17T03:36:01.522Z,15.80
2022-11-17T03:38:31.092Z,19.80
2022-11-17T03:41:00.150Z,16.50
2022-11-17T03:43:27.896Z,14.30
2022-11-17T03:45:57.097Z,18.30
2022-11-17T03:49:22.612Z,15.70
2022-11-17T03:51:51.295Z,14.50
2022-11-17T03:54:18.759Z,15.60
2022-11-17T03:56:51.612Z,14.20
2022-11-17T03:59:30.846Z,13.80
2022-11-17T04:01:58.581Z,14.30
2022-11-17T04:04:46.756Z,14.20
2022-11-17T04:07:13.978Z,10.90
2022-11-17T04:09:41.175Z,10.80
2022-11-17T04:12:27.999Z,12.80
2022-11-17T04:15:13.875Z,11.00
2022-11-17T04:17:41.425Z,10.40
2022-11-17T04:20:09.917Z,11.20
2022-11-17T04:22:37.885Z,11.90
2022-11-17T04:25:06.173Z,10.80
2022-11-17T04:27:52.874Z,11.20
2022-11-17T04:30:20.132Z,11.40
2022-11-17T04:32:47.379Z,10.20
2022-11-17T04:35:14.994Z,9.80
2022-11-17T04:37:43.896Z,13.20
2022-11-17T04:40:11.700Z,10.40
2022-11-17T04:42:38.942Z,11.00
2022-11-17T04:45:07.139Z,12.30
2022-11-17T04:47:34.350Z,10.50
2022-11-17T04:50:01.607Z,12.50
2022-11-17T04:52:29.992Z,11.20
2022-11-17T04:54:58.796Z,11.20
2022-11-17T04:57:26.859Z,11.30
2022-11-17T04:59:54.238Z,13.10
2022-11-17T05:02:21.488Z,13.80
2022-11-17T05:04:58.138Z,12.00
2022-11-17T05:07:25.460Z,11.00
2022-11-17T05:09:52.836Z,12.50
2022-11-17T05:12:39.037Z,10.70
2022-11-17T05:15:08.038Z,11.60
2022-11-17T05:17:36.118Z,10.50
2022-11-17T05:20:03.865Z,10.40
2022-11-17T05:22:50.182Z,11.50
2022-11-17T05:25:18.140Z,10.10
2022-11-17T05:27:46.303Z,11.90
2022-11-17T05:30:14.377Z,10.00
2022-11-17T05:32:41.437Z,13.90
2022-11-17T05:35:09.297Z,12.90
2022-11-17T05:37:36.332Z,12.20
2022-11-17T05:40:03.713Z,11.30
2022-11-17T05:42:32.072Z,11.70
2022-11-17T05:44:59.438Z,10.20
2022-11-17T05:47:26.577Z,9.90
2022-11-17T05:49:54.673Z,11.70
2022-11-17T05:52:21.788Z,12.10
2022-11-17T05:54:48.836Z,10.60
2022-11-17T05:57:22.912Z,9.40
2022-11-17T05:59:54.176Z,10.60
2022-11-17T06:02:30.460Z,13.20
2022-11-17T06:04:57.717Z,11.50
2022-11-17T06:07:25.752Z,10.30
2022-11-17T06:09:53.045Z,11.20
2022-11-17T06:12:20.088Z,10.70
2022-11-17T06:14:47.529Z,12.10
2022-11-17T06:17:22.742Z,10.10
2022-11-17T06:19:58.237Z,10.90
2022-11-17T06:22:27.221Z,11.30
2022-11-17T06:24:54.881Z,9.70
2022-11-17T06:27:25.393Z,10.30
2022-11-17T06:29:53.477Z,12.20
2022-11-17T06:32:21.758Z,8.40
2022-11-17T06:34:55.188Z,10.30
2022-11-17T06:37:24.937Z,9.80
2022-11-17T06:39:52.721Z,11.40
2022-11-17T06:42:19.877Z,11.80
2022-11-17T06:44:47.018Z,12.50
2022-11-17T06:47:14.577Z,11.80
2022-11-17T06:49:41.742Z,10.50
2022-11-17T06:52:08.870Z,10.90
2022-11-17T06:54:36.844Z,9.00
2022-11-17T06:57:04.089Z,9.20
2022-11-17T06:59:31.358Z,10.10
2022-11-17T07:01:58.498Z,10.50
2022-11-17T07:04:25.547Z,10.60
2022-11-17T07:06:52.835Z,9.70
2022-11-17T07:09:20.358Z,9.50
2022-11-17T07:11:47.621Z,8.20
2022-11-17T07:14:14.979Z,8.80
2022-11-17T07:16:44.163Z,8.50
2022-11-17T07:19:12.042Z,9.00
2022-11-17T07:21:39.181Z,8.10
2022-11-17T07:24:06.689Z,9.90
2022-11-17T07:26:34.203Z,10.10
2022-11-17T07:29:01.645Z,8.40
2022-11-17T07:31:29.020Z,9.10
2022-11-17T07:33:57.988Z,10.30
2022-11-17T07:36:25.251Z,9.40
2022-11-17T07:38:52.498Z,9.60
2022-11-17T07:41:19.644Z,11.10
2022-11-17T07:43:46.797Z,9.90
2022-11-17T07:46:15.374Z,10.00
2022-11-17T07:48:43.764Z,11.00
2022-11-17T07:51:12.048Z,9.10
2022-11-17T07:53:39.483Z,10.70
2022-11-17T07:56:11.422Z,8.70
2022-11-17T07:58:39.217Z,10.30
2022-11-17T08:01:08.264Z,9.50
2022-11-17T08:03:35.935Z,9.00
2022-11-17T08:06:04.555Z,9.60
2022-11-17T08:08:32.589Z,7.90
2022-11-17T08:11:11.138Z,9.50
2022-11-17T08:13:39.834Z,7.90
2022-11-17T08:16:08.143Z,8.70
2022-11-17T08:18:36.811Z,9.40
2022-11-17T08:21:10.808Z,10.40
2022-11-17T08:23:40.032Z,9.60
2022-11-17T08:26:09.467Z,9.20
2022-11-17T08:28:37.598Z,9.80
2022-11-17T08:31:06.688Z,8.80
2022-11-17T08:33:34.325Z,9.80
2022-11-17T08:36:02.389Z,9.00
2022-11-17T08:38:29.644Z,9.60
2022-11-17T08:41:05.497Z,7.60
2022-11-17T08:43:32.851Z,8.80
2022-11-17T08:46:00.118Z,9.20
2022-11-17T08:48:27.255Z,8.20
2022-11-17T08:50:54.503Z,7.50
2022-11-17T08:53:23.575Z,8.80
2022-11-17T08:55:52.179Z,8.70
2022-11-17T08:58:19.430Z,8.90
2022-11-17T09:00:47.836Z,8.60
2022-11-17T09:03:15.372Z,8.90
2022-11-17T09:05:47.440Z,9.30
2022-11-17T09:08:44.933Z,10.10
2022-11-17T09:11:11.025Z,7.40
2022-11-17T09:13:39.970Z,8.90
2022-11-17T09:16:09.633Z,8.10
2022-11-17T09:18:38.665Z,8.00
2022-11-17T09:21:11.505Z,9.40
2022-11-17T09:23:39.463Z,8.30
2022-11-17T09:26:09.497Z,8.60
2022-11-17T09:28:37.035Z,8.60
2022-11-17T09:31:16.666Z,11.20
2022-11-17T09:33:44.878Z,9.30
2022-11-17T09:36:13.979Z,7.90
2022-11-17T09:38:41.715Z,9.20
2022-11-17T09:41:27.831Z,8.10
2022-11-17T09:44:18.616Z,10.40
2022-11-17T09:47:01.987Z,9.80
2022-11-17T09:49:58.948Z,10.70
2022-11-17T09:52:44.579Z,8.50
2022-11-17T09:55:23.624Z,8.30
2022-11-17T09:58:36.295Z,9.90
2022-11-17T10:01:04.552Z,8.80
2022-11-17T10:03:36.271Z,8.90
2022-11-17T10:06:18.294Z,8.30
2022-11-17T10:09:00.835Z,8.10
2022-11-17T10:11:33.487Z,7.80
2022-11-17T10:14:30.698Z,8.10
2022-11-17T10:17:00.307Z,8.40
2022-11-17T10:19:31.578Z,7.30
2022-11-17T10:22:04.596Z,8.10
2022-11-17T10:24:48.661Z,7.50
2022-11-17T10:27:21.567Z,7.70
2022-11-17T10:30:07.395Z,8.60
2022-11-17T10:32:42.670Z,8.40
2022-11-17T10:35:20.716Z,7.20
2022-11-17T10:37:59.212Z,9.00
2022-11-17T10:40:32.273Z,8.40
2022-11-17T10:43:14.321Z,8.70
2022-11-17T10:45:49.289Z,7.90
2022-11-17T10:48:22.435Z,7.70
2022-11-17T10:51:10.209Z,7.80
2022-11-17T10:53:46.087Z,7.20
2022-11-17T10:56:16.535Z,6.30
2022-11-17T10:58:59.150Z,7.30
2022-11-17T11:01:35.898Z,6.90
2022-11-17T11:04:05.226Z,6.80
2022-11-17T11:06:34.210Z,6.90
2022-11-17T11:09:05.419Z,7.10
2022-11-17T11:11:47.549Z,8.50
2022-11-17T11:14:39.285Z,8.50
2022-11-17T11:17:12.177Z,7.70
2022-11-17T11:19:41.390Z,7.90
2022-11-17T11:22:28.277Z,6.30
2022-11-17T11:24:59.311Z,6.30
2022-11-17T11:27:41.637Z,5.70
2022-11-17T11:30:17.407Z,7.10
2022-11-17T11:33:01.330Z,7.30
2022-11-17T11:36:00.512Z,7.30
2022-11-17T11:38:49.065Z,7.20
2022-11-17T11:41:29.936Z,7.30
2022-11-17T11:43:58.319Z,8.00
2022-11-17T11:46:47.491Z,7.60
2022-11-17T11:49:26.719Z,7.90
2022-11-17T11:51:55.298Z,6.70
2022-11-17T11:54:46.293Z,7.50
2022-11-17T11:57:21.652Z,7.70
2022-11-17T12:00:09.221Z,8.90
2022-11-17T12:02:49.085Z,8.60
2022-11-17T12:05:33.170Z,9.10
2022-11-17T12:08:15.077Z,7.30
2022-11-17T12:11:01.462Z,7.60
2022-11-17T12:13:29.018Z,8.10
2022-11-17T12:16:18.859Z,8.00
2022-11-17T12:18:46.478Z,7.70
2022-11-17T12:21:14.610Z,7.00
2022-11-17T12:24:06.898Z,6.10
2022-11-17T12:26:35.456Z,7.90
2022-11-17T12:29:21.549Z,7.80
2022-11-17T12:31:53.176Z,8.00
2022-11-17T12:34:26.763Z,7.70
2022-11-17T12:37:13.495Z,7.40
2022-11-17T12:40:04.413Z,6.20
2022-11-17T12:42:33.743Z,7.80
2022-11-17T12:45:16.984Z,7.50
2022-11-17T12:47:59.480Z,7.70
2022-11-17T12:50:43.759Z,6.70
2022-11-17T12:53:13.624Z,9.40
2022-11-17T12:55:46.832Z,8.20
2022-11-17T12:58:44.788Z,7.80
2022-11-17T13:01:40.340Z,8.00
2022-11-17T13:04:21.334Z,7.70
2022-11-17T13:07:01.307Z,8.00
2022-11-17T13:09:31.724Z,8.00
2022-11-17T13:12:04.838Z,8.60
2022-11-17T13:14:33.937Z,7.40
2022-11-17T13:17:03.146Z,8.60
2022-11-17T13:19:35.225Z,7.90
2022-11-17T13:22:17.426Z,7.80
2022-11-17T13:24:50.110Z,10.20
2022-11-17T13:27:28.925Z,8.20
2022-11-17T13:30:24.528Z,9.30
2022-11-17T13:32:54.238Z,10.00
2022-11-17T13:35:26.314Z,8.20
2022-11-17T13:38:12.600Z,7.50
2022-11-17T13:40:41.378Z,9.10
2022-11-17T13:43:12.607Z,9.00
2022-11-17T13:45:41.613Z,9.70
2022-11-17T13:48:35.688Z,8.40
2022-11-17T13:51:23.431Z,8.20
2022-11-17T13:53:54.152Z,7.60
2022-11-17T13:56:32.059Z,8.80
2022-11-17T13:59:17.453Z,7.50
2022-11-17T14:01:45.473Z,7.80
2022-11-17T14:04:19.606Z,13.20
2022-11-17T14:06:54.390Z,9.70
2022-11-17T14:09:22.828Z,22.70
2022-11-17T14:11:50.897Z,24.50
2022-11-17T14:14:35.051Z,17.90
2022-11-17T14:17:22.580Z,12.30
2022-11-17T14:19:49.830Z,11.80
2022-11-17T14:22:24.716Z,13.50
2022-11-17T14:24:57.046Z,10.40
2022-11-17T14:27:30.210Z,13.10
2022-11-17T14:30:00.129Z,10.20
2022-11-17T14:32:27.218Z,11.50
2022-11-17T14:34:54.428Z,11.10
2022-11-17T14:37:21.886Z,12.20
2022-11-17T14:39:49.245Z,13.30
2022-11-17T14:42:16.604Z,11.30
2022-11-17T14:44:44.055Z,10.60
2022-11-17T14:47:11.315Z,11.70
2022-11-17T14:49:38.558Z,10.80
2022-11-17T14:52:06.224Z,9.20
2022-11-17T14:54:34.400Z,8.40
2022-11-17T14:57:01.537Z,10.50
2022-11-17T14:59:29.116Z,8.50
2022-11-17T15:01:57.575Z,8.70
2022-11-17T15:04:49.315Z,7.20
2022-11-17T15:07:13.511Z,7.30
2022-11-17T15:09:40.734Z,10.90
2022-11-17T15:12:08.418Z,8.20
2022-11-17T15:14:38.636Z,9.80
2022-11-17T15:17:08.703Z,9.90
2022-11-17T15:19:39.059Z,9.80
2022-11-17T15:22:07.435Z,8.20
2022-11-17T15:24:36.429Z,12.00
2022-11-17T15:27:03.992Z,10.10
2022-11-17T15:29:31.759Z,8.60
2022-11-17T15:31:59.028Z,9.60
2022-11-17T15:34:26.377Z,9.40
2022-11-17T15:36:53.928Z,9.10
2022-11-17T15:39:21.381Z,9.40
2022-11-17T15:41:51.312Z,9.40
2022-11-17T15:44:21.406Z,9.50
2022-11-17T15:46:48.578Z,9.80
2022-11-17T15:49:16.256Z,8.90
2022-11-17T15:51:43.588Z,11.50
2022-11-17T15:54:16.683Z,9.20
2022-11-17T15:56:48.570Z,8.20
2022-11-17T15:59:16.119Z,9.80
2022-11-17T16:01:43.748Z,8.10
2022-11-17T16:04:13.354Z,12.00
2022-11-17T16:06:42.152Z,12.10
2022-11-17T16:09:15.977Z,10.90
2022-11-17T16:11:43.789Z,11.10
2022-11-17T16:14:11.977Z,11.00
2022-11-17T16:16:40.082Z,10.10
2022-11-17T16:19:08.328Z,8.80
2022-11-17T16:21:35.600Z,10.40
2022-11-17T16:24:03.554Z,11.40
2022-11-17T16:26:31.410Z,10.20
2022-11-17T16:29:04.979Z,9.20
2022-11-17T16:31:35.040Z,9.30
2022-11-17T16:34:13.548Z,8.50
2022-11-17T16:36:43.460Z,10.10
2022-11-17T16:39:13.804Z,9.90
2022-11-17T16:41:43.448Z,11.70
2022-11-17T16:44:12.881Z,9.50
2022-11-17T16:46:43.880Z,9.50
2022-11-17T16:49:13.359Z,9.10
2022-11-17T16:51:41.858Z,9.40
2022-11-17T16:54:12.565Z,9.50
2022-11-17T16:56:39.715Z,9.80
2022-11-17T16:59:07.691Z,9.90
2022-11-17T17:01:36.617Z,9.40
2022-11-17T17:04:09.154Z,9.40
2022-11-17T17:06:40.892Z,9.60
2022-11-17T17:09:10.397Z,8.10
2022-11-17T17:11:39.347Z,5.70
2022-11-17T17:14:08.766Z,8.60
2022-11-17T17:16:38.217Z,6.50
2022-11-17T17:19:10.897Z,8.30
2022-11-17T17:21:41.185Z,10.80
2022-11-17T17:24:09.838Z,10.30
2022-11-17T17:26:38.278Z,9.50
2022-11-17T17:29:10.637Z,10.70
2022-11-17T17:31:40.982Z,7.40
2022-11-17T17:34:11.290Z,8.30
2022-11-17T17:36:40.042Z,9.50
2022-11-17T17:39:16.061Z,9.80
2022-11-17T17:41:44.902Z,8.80
2022-11-17T17:44:20.264Z,9.40
2022-11-17T17:46:49.356Z,8.10
2022-11-17T17:49:19.629Z,9.10
2022-11-17T17:51:48.618Z,8.70
2022-11-17T17:54:19.255Z,7.90
2022-11-17T17:56:48.399Z,7.10
2022-11-17T17:59:18.004Z,8.70
2022-11-17T18:01:50.817Z,9.00
2022-11-17T18:04:19.337Z,8.50
2022-11-17T18:06:48.823Z,8.60
2022-11-17T18:09:26.700Z,7.80
2022-11-17T18:11:55.648Z,7.20
2022-11-17T18:14:29.797Z,8.50
2022-11-17T18:16:57.848Z,8.40
2022-11-17T18:19:32.764Z,7.20
2022-11-17T18:22:04.231Z,8.90
2022-11-17T18:24:33.252Z,9.40
2022-11-17T18:27:02.566Z,9.50
2022-11-17T18:29:30.694Z,8.40
2022-11-17T18:31:58.048Z,9.40
2022-11-17T18:34:27.502Z,8.80
2022-11-17T18:36:56.185Z,9.40
2022-11-17T18:39:24.583Z,8.90
2022-11-17T18:41:51.777Z,8.60
2022-11-17T18:44:20.621Z,7.90
2022-11-17T18:46:49.157Z,7.40
2022-11-17T18:49:17.087Z,7.80
2022-11-17T18:51:45.278Z,9.00
2022-11-17T18:54:14.781Z,7.90
2022-11-17T18:56:45.017Z,9.30
2022-11-17T18:59:14.833Z,10.10
2022-11-17T19:01:43.570Z,11.30
2022-11-17T19:04:15.202Z,8.30
2022-11-17T19:06:43.433Z,9.00
2022-11-17T19:09:11.139Z,11.10
2022-11-17T19:11:40.617Z,10.30
2022-11-17T19:14:08.572Z,10.20
2022-11-17T19:16:44.759Z,9.60
2022-11-17T19:19:14.030Z,9.30
2022-11-17T19:21:43.415Z,8.20
2022-11-17T19:24:11.715Z,9.80
2022-11-17T19:26:43.129Z,10.30
2022-11-17T19:29:16.669Z,10.50
2022-11-17T19:31:47.953Z,10.20
2022-11-17T19:34:17.367Z,9.20
2022-11-17T19:36:48.551Z,10.20
2022-11-17T19:39:17.265Z,11.80
2022-11-17T19:41:46.337Z,8.90
2022-11-17T19:44:13.692Z,8.70
2022-11-17T19:46:43.730Z,8.50
2022-11-17T19:49:13.418Z,10.00
2022-11-17T19:51:47.944Z,8.20
2022-11-17T19:54:16.118Z,11.40
2022-11-17T19:56:43.566Z,11.10
2022-11-17T19:59:15.744Z,11.50
2022-11-17T20:01:44.902Z,9.60
2022-11-17T20:04:13.525Z,9.80
2022-11-17T20:06:41.500Z,11.80
2022-11-17T20:09:16.276Z,12.10
2022-11-17T20:11:45.398Z,11.80
2022-11-17T20:14:15.376Z,10.10
2022-11-17T20:16:44.706Z,9.70
2022-11-17T20:19:13.097Z,9.00
2022-11-17T20:21:40.469Z,12.10
2022-11-17T20:24:08.629Z,8.40
2022-11-17T20:26:40.397Z,9.20
2022-11-17T20:29:08.479Z,9.70
2022-11-17T20:31:37.247Z,9.10
2022-11-17T20:34:06.110Z,7.50
2022-11-17T20:36:35.541Z,10.90
2022-11-17T20:39:05.153Z,9.50
2022-11-17T20:41:32.903Z,11.10
2022-11-17T20:44:01.282Z,8.80
2022-11-17T20:46:29.360Z,10.40
2022-11-17T20:48:57.437Z,10.90
2022-11-17T20:51:26.112Z,10.90
2022-11-17T20:53:54.196Z,10.60
2022-11-17T20:56:22.257Z,9.70
2022-11-17T20:58:50.840Z,10.00
2022-11-17T21:01:21.673Z,10.50
2022-11-17T21:03:49.760Z,10.50
2022-11-17T21:06:17.516Z,10.40
2022-11-17T21:08:45.997Z,12.10
2022-11-17T21:11:37.422Z,10.50
2022-11-17T21:14:06.968Z,10.50
2022-11-17T21:16:35.191Z,11.20
2022-11-17T21:19:02.557Z,9.50
2022-11-17T21:21:31.341Z,10.80
2022-11-17T21:23:58.805Z,10.00
2022-11-17T21:26:28.400Z,10.60
2022-11-17T21:28:55.756Z,12.00
2022-11-17T21:31:26.075Z,10.70
2022-11-17T21:33:58.560Z,10.00
2022-11-17T21:36:28.441Z,11.40
2022-11-17T21:38:56.014Z,10.40
2022-11-17T21:41:25.513Z,8.90
2022-11-17T21:43:54.838Z,9.50
2022-11-17T21:46:24.426Z,8.00
2022-11-17T21:48:52.914Z,9.20
2022-11-17T21:51:29.275Z,10.70
2022-11-17T21:53:58.077Z,11.00
2022-11-17T21:56:27.489Z,10.60
2022-11-17T21:58:59.637Z,11.30
2022-11-17T22:01:29.088Z,10.10
2022-11-17T22:03:56.897Z,9.60
2022-11-17T22:06:26.005Z,10.60
2022-11-17T22:08:54.786Z,10.20
2022-11-17T22:11:37.846Z,10.40
2022-11-17T22:14:28.300Z,9.60
2022-11-17T22:16:57.935Z,10.30
2022-11-17T22:19:29.912Z,10.00
2022-11-17T22:21:57.237Z,10.90
2022-11-17T22:24:24.482Z,10.40
2022-11-17T22:26:52.177Z,11.70
2022-11-17T22:29:21.599Z,9.50
2022-11-17T22:31:51.446Z,12.40
2022-11-17T22:34:19.316Z,10.90
2022-11-17T22:36:46.988Z,11.90
2022-11-17T22:39:14.622Z,10.70
2022-11-17T22:41:41.999Z,12.50
2022-11-17T22:44:12.976Z,11.90
2022-11-17T22:46:41.108Z,13.00
2022-11-17T22:49:08.468Z,12.20
2022-11-17T22:51:54.458Z,11.30
2022-11-17T22:54:21.816Z,11.70
2022-11-17T22:56:49.381Z,12.30
2022-11-17T22:59:17.300Z,12.60
2022-11-17T23:01:44.605Z,13.00
2022-11-17T23:04:12.760Z,9.40
2022-11-17T23:06:40.937Z,11.50
2022-11-17T23:09:08.077Z,13.50
2022-11-17T23:11:37.948Z,10.70
2022-11-17T23:14:08.292Z,11.30
2022-11-17T23:16:39.166Z,12.30
2022-11-17T23:19:07.020Z,14.30
2022-11-17T23:21:34.178Z,11.60
2022-11-17T23:24:01.526Z,13.00
2022-11-17T23:26:28.671Z,11.50
2022-11-17T23:28:55.860Z,12.70
2022-11-17T23:31:23.076Z,11.50
2022-11-17T23:33:50.760Z,14.50
2022-11-17T23:36:20.325Z,14.40
2022-11-17T23:38:48.420Z,12.20
2022-11-17T23:41:17.950Z,11.70
2022-11-17T23:43:45.271Z,14.20
2022-11-17T23:46:17.331Z,11.80
2022-11-17T23:48:45.003Z,11.80
2022-11-17T23:51:17.554Z,11.20
2022-11-17T23:53:45.137Z,10.90
2022-11-17T23:56:12.398Z,11.60
2022-11-17T23:58:40.377Z,13.40
